sensor_id;sensor_type;location;lat;lon;timestamp;P1;durP1;ratioP1;P2;durP2;ratioP2
18808;SDS011;9532;54.322;10.116;2022-11-15T00:00:09;8.87;;;6.17;;
18808;SDS011;9532;54.322;10.116;2022-11-15T00:02:37;10.63;;;7.13;;
18808;SDS011;9532;54.322;10.116;2022-11-15T00:05:04;9.90;;;6.87;;
18808;SDS011;9532;54.322;10.116;2022-11-15T00:07:32;9.97;;;6.67;;
18808;SDS011;9532;54.322;10.116;2022-11-15T00:10:00;10.47;;;7.30;;
18808;SDS011;9532;54.322;10.116;2022-11-15T00:12:28;9.93;;;7.30;;
18808;SDS011;9532;54.322;10.116;2022-11-15T00:14:55;10.03;;;7.13;;
18808;SDS011;9532;54.322;10.116;2022-11-15T00:17:22;9.90;;;7.23;;
18808;SDS011;9532;54.322;10.116;2022-11-15T00:19:49;10.50;;;6.80;;
18808;SDS011;9532;54.322;10.116;2022-11-15T00:22:17;8.97;;;6.47;;
18808;SDS011;9532;54.322;10.116;2022-11-15T00:24:44;9.80;;;7.47;;
18808;SDS011;9532;54.322;10.116;2022-11-15T00:27:13;9.57;;;7.03;;
18808;SDS011;9532;54.322;10.116;2022-11-15T00:29:40;11.13;;;7.53;;
18808;SDS011;9532;54.322;10.116;2022-11-15T00:32:08;9.07;;;6.80;;
18808;SDS011;9532;54.322;10.116;2022-11-15T00:34:36;9.80;;;6.70;;
18808;SDS011;9532;54.322;10.116;2022-11-15T00:37:03;10.17;;;6.80;;
18808;SDS011;9532;54.322;10.116;2022-11-15T00:39:30;10.97;;;7.60;;
18808;SDS011;9532;54.322;10.116;2022-11-15T00:41:57;10.07;;;7.20;;
18808;SDS011;9532;54.322;10.116;2022-11-15T00:44:26;10.87;;;6.80;;
18808;SDS011;9532;54.322;10.116;2022-11-15T00:46:54;10.83;;;7.90;;
18808;SDS011;9532;54.322;10.116;2022-11-15T00:49:21;10.97;;;7.17;;
18808;SDS011;9532;54.322;10.116;2022-11-15T00:51:48;10.70;;;7.17;;
18808;SDS011;9532;54.322;10.116;2022-11-15T00:54:15;10.20;;;7.23;;
18808;SDS011;9532;54.322;10.116;2022-11-15T00:56:42;10.13;;;7.10;;
18808;SDS011;9532;54.322;10.116;2022-11-15T00:59:09;10.00;;;6.83;;
18808;SDS011;9532;54.322;10.116;2022-11-15T01:01:38;11.40;;;7.73;;
18808;SDS011;9532;54.322;10.116;2022-11-15T01:04:06;10.63;;;7.17;;
18808;SDS011;9532;54.322;10.116;2022-11-15T01:06:33;9.93;;;7.10;;
18808;SDS011;9532;54.322;10.116;2022-11-15T01:09:00;10.70;;;7.57;;
18808;SDS011;9532;54.322;10.116;2022-11-15T01:11:27;9.53;;;7.03;;
18808;SDS011;9532;54.322;10.116;2022-11-15T01:13:55;10.30;;;7.20;;
18808;SDS011;9532;54.322;10.116;2022-11-15T01:16:22;9.60;;;6.87;;
18808;SDS011;9532;54.322;10.116;2022-11-15T01:18:51;9.70;;;6.97;;
18808;SDS011;9532;54.322;10.116;2022-11-15T01:21:18;9.87;;;7.07;;
18808;SDS011;9532;54.322;10.116;2022-11-15T01:23:46;9.77;;;7.00;;
18808;SDS011;9532;54.322;10.116;2022-11-15T01:26:14;9.77;;;6.97;;
18808;SDS011;9532;54.322;10.116;2022-11-15T01:28:41;11.17;;;7.70;;
18808;SDS011;9532;54.322;10.116;2022-11-15T01:31:11;10.77;;;7.10;;
18808;SDS011;9532;54.322;10.116;2022-11-15T01:33:40;9.07;;;6.73;;
18808;SDS011;9532;54.322;10.116;2022-11-15T01:36:10;10.20;;;7.23;;
18808;SDS011;9532;54.322;10.116;2022-11-15T01:38:39;9.00;;;6.97;;
18808;SDS011;9532;54.322;10.116;2022-11-15T01:41:06;10.03;;;7.20;;
18808;SDS011;9532;54.322;10.116;2022-11-15T01:43:39;10.60;;;7.43;;
18808;SDS011;9532;54.322;10.116;2022-11-15T01:46:12;9.10;;;6.97;;
18808;SDS011;9532;54.322;10.116;2022-11-15T01:48:51;10.27;;;7.63;;
18808;SDS011;9532;54.322;10.116;2022-11-15T01:51:22;9.77;;;7.17;;
18808;SDS011;9532;54.322;10.116;2022-11-15T01:53:54;8.67;;;6.83;;
18808;SDS011;9532;54.322;10.116;2022-11-15T01:56:25;9.03;;;7.03;;
18808;SDS011;9532;54.322;10.116;2022-11-15T01:58:56;8.97;;;6.50;;
18808;SDS011;9532;54.322;10.116;2022-11-15T02:01:25;9.40;;;7.20;;
18808;SDS011;9532;54.322;10.116;2022-11-15T02:03:56;9.80;;;7.00;;
18808;SDS011;9532;54.322;10.116;2022-11-15T02:06:27;11.13;;;7.53;;
18808;SDS011;9532;54.322;10.116;2022-11-15T02:08:55;9.00;;;7.03;;
18808;SDS011;9532;54.322;10.116;2022-11-15T02:11:23;8.47;;;6.47;;
18808;SDS011;9532;54.322;10.116;2022-11-15T02:13:51;9.97;;;7.40;;
18808;SDS011;9532;54.322;10.116;2022-11-15T02:16:20;9.97;;;7.13;;
18808;SDS011;9532;54.322;10.116;2022-11-15T02:18:59;9.00;;;6.90;;
18808;SDS011;9532;54.322;10.116;2022-11-15T02:21:38;11.93;;;7.30;;
18808;SDS011;9532;54.322;10.116;2022-11-15T02:24:25;10.83;;;7.87;;
18808;SDS011;9532;54.322;10.116;2022-11-15T02:27:42;8.97;;;6.57;;
18808;SDS011;9532;54.322;10.116;2022-11-15T02:30:29;10.27;;;7.50;;
18808;SDS011;9532;54.322;10.116;2022-11-15T02:33:03;9.87;;;7.50;;
18808;SDS011;9532;54.322;10.116;2022-11-15T02:35:41;9.40;;;6.50;;
18808;SDS011;9532;54.322;10.116;2022-11-15T02:38:15;8.50;;;6.80;;
18808;SDS011;9532;54.322;10.116;2022-11-15T02:40:53;10.10;;;7.53;;
18808;SDS011;9532;54.322;10.116;2022-11-15T02:43:28;8.93;;;6.73;;
18808;SDS011;9532;54.322;10.116;2022-11-15T02:46:17;10.40;;;7.67;;
18808;SDS011;9532;54.322;10.116;2022-11-15T02:49:09;9.73;;;7.43;;
18808;SDS011;9532;54.322;10.116;2022-11-15T02:51:38;9.33;;;7.27;;
18808;SDS011;9532;54.322;10.116;2022-11-15T02:54:10;8.77;;;6.80;;
18808;SDS011;9532;54.322;10.116;2022-11-15T02:56:39;9.13;;;6.70;;
18808;SDS011;9532;54.322;10.116;2022-11-15T02:59:10;8.73;;;6.80;;
18808;SDS011;9532;54.322;10.116;2022-11-15T03:01:54;8.90;;;6.83;;
18808;SDS011;9532;54.322;10.116;2022-11-15T03:04:34;9.73;;;6.77;;
18808;SDS011;9532;54.322;10.116;2022-11-15T03:07:09;8.67;;;7.07;;
18808;SDS011;9532;54.322;10.116;2022-11-15T03:09:41;10.53;;;6.93;;
18808;SDS011;9532;54.322;10.116;2022-11-15T03:12:16;9.27;;;7.13;;
18808;SDS011;9532;54.322;10.116;2022-11-15T03:14:51;8.50;;;6.80;;
18808;SDS011;9532;54.322;10.116;2022-11-15T03:17:25;9.13;;;6.77;;
18808;SDS011;9532;54.322;10.116;2022-11-15T03:19:55;8.73;;;6.60;;
18808;SDS011;9532;54.322;10.116;2022-11-15T03:22:26;10.83;;;7.10;;
18808;SDS011;9532;54.322;10.116;2022-11-15T03:24:57;10.33;;;7.63;;
18808;SDS011;9532;54.322;10.116;2022-11-15T03:27:28;9.03;;;7.00;;
18808;SDS011;9532;54.322;10.116;2022-11-15T03:29:59;10.90;;;7.20;;
18808;SDS011;9532;54.322;10.116;2022-11-15T03:32:34;9.33;;;7.00;;
18808;SDS011;9532;54.322;10.116;2022-11-15T03:35:04;9.37;;;7.10;;
18808;SDS011;9532;54.322;10.116;2022-11-15T03:37:34;9.33;;;7.17;;
18808;SDS011;9532;54.322;10.116;2022-11-15T03:40:07;9.40;;;7.27;;
18808;SDS011;9532;54.322;10.116;2022-11-15T03:42:37;8.50;;;6.70;;
18808;SDS011;9532;54.322;10.116;2022-11-15T03:45:10;9.13;;;6.73;;
18808;SDS011;9532;54.322;10.116;2022-11-15T03:47:45;10.13;;;7.37;;
18808;SDS011;9532;54.322;10.116;2022-11-15T03:50:16;8.80;;;6.83;;
18808;SDS011;9532;54.322;10.116;2022-11-15T03:52:45;8.97;;;6.70;;
18808;SDS011;9532;54.322;10.116;2022-11-15T03:55:15;8.97;;;6.93;;
18808;SDS011;9532;54.322;10.116;2022-11-15T03:57:44;9.93;;;7.27;;
18808;SDS011;9532;54.322;10.116;2022-11-15T04:00:14;10.03;;;7.37;;
18808;SDS011;9532;54.322;10.116;2022-11-15T04:02:44;9.90;;;7.30;;
18808;SDS011;9532;54.322;10.116;2022-11-15T04:05:11;9.20;;;6.90;;
18808;SDS011;9532;54.322;10.116;2022-11-15T04:07:38;9.10;;;6.97;;
18808;SDS011;9532;54.322;10.116;2022-11-15T04:10:06;10.17;;;7.37;;
18808;SDS011;9532;54.322;10.116;2022-11-15T04:12:36;9.80;;;7.27;;
18808;SDS011;9532;54.322;10.116;2022-11-15T04:15:06;8.63;;;6.97;;
18808;SDS011;9532;54.322;10.116;2022-11-15T04:17:39;8.63;;;6.70;;
18808;SDS011;9532;54.322;10.116;2022-11-15T04:20:11;9.33;;;6.87;;
18808;SDS011;9532;54.322;10.116;2022-11-15T04:22:57;9.23;;;7.03;;
18808;SDS011;9532;54.322;10.116;2022-11-15T04:25:42;9.87;;;7.13;;
18808;SDS011;9532;54.322;10.116;2022-11-15T04:28:10;9.00;;;6.80;;
18808;SDS011;9532;54.322;10.116;2022-11-15T04:30:38;9.13;;;6.80;;
18808;SDS011;9532;54.322;10.116;2022-11-15T04:33:05;10.27;;;7.60;;
18808;SDS011;9532;54.322;10.116;2022-11-15T04:35:33;9.37;;;6.40;;
18808;SDS011;9532;54.322;10.116;2022-11-15T04:38:01;9.47;;;6.90;;
18808;SDS011;9532;54.322;10.116;2022-11-15T04:40:29;9.17;;;6.90;;
18808;SDS011;9532;54.322;10.116;2022-11-15T04:42:56;9.17;;;6.87;;
18808;SDS011;9532;54.322;10.116;2022-11-15T04:45:23;10.03;;;7.40;;
18808;SDS011;9532;54.322;10.116;2022-11-15T04:47:50;9.87;;;7.23;;
18808;SDS011;9532;54.322;10.116;2022-11-15T04:50:17;8.77;;;7.00;;
18808;SDS011;9532;54.322;10.116;2022-11-15T04:52:51;9.10;;;7.00;;
18808;SDS011;9532;54.322;10.116;2022-11-15T04:55:19;8.63;;;6.80;;
18808;SDS011;9532;54.322;10.116;2022-11-15T04:57:47;8.70;;;6.73;;
18808;SDS011;9532;54.322;10.116;2022-11-15T05:00:22;9.53;;;7.00;;
18808;SDS011;9532;54.322;10.116;2022-11-15T05:02:50;9.43;;;6.97;;
18808;SDS011;9532;54.322;10.116;2022-11-15T05:05:35;9.17;;;6.83;;
18808;SDS011;9532;54.322;10.116;2022-11-15T05:08:03;8.87;;;6.90;;
18808;SDS011;9532;54.322;10.116;2022-11-15T05:10:30;9.00;;;7.10;;
18808;SDS011;9532;54.322;10.116;2022-11-15T05:12:57;9.70;;;7.10;;
18808;SDS011;9532;54.322;10.116;2022-11-15T05:15:24;8.77;;;7.10;;
18808;SDS011;9532;54.322;10.116;2022-11-15T05:17:55;8.77;;;6.93;;
18808;SDS011;9532;54.322;10.116;2022-11-15T05:20:23;8.67;;;6.30;;
18808;SDS011;9532;54.322;10.116;2022-11-15T05:22:51;9.17;;;7.07;;
18808;SDS011;9532;54.322;10.116;2022-11-15T05:25:20;8.33;;;6.60;;
18808;SDS011;9532;54.322;10.116;2022-11-15T05:27:47;8.37;;;6.57;;
18808;SDS011;9532;54.322;10.116;2022-11-15T05:30:15;9.00;;;6.87;;
18808;SDS011;9532;54.322;10.116;2022-11-15T05:32:42;9.40;;;7.17;;
18808;SDS011;9532;54.322;10.116;2022-11-15T05:35:11;8.53;;;6.80;;
18808;SDS011;9532;54.322;10.116;2022-11-15T05:37:42;8.87;;;6.73;;
18808;SDS011;9532;54.322;10.116;2022-11-15T05:40:09;9.53;;;6.93;;
18808;SDS011;9532;54.322;10.116;2022-11-15T05:42:38;8.87;;;6.83;;
18808;SDS011;9532;54.322;10.116;2022-11-15T05:45:06;8.97;;;6.60;;
18808;SDS011;9532;54.322;10.116;2022-11-15T05:47:34;9.07;;;7.13;;
18808;SDS011;9532;54.322;10.116;2022-11-15T05:50:05;8.93;;;6.70;;
18808;SDS011;9532;54.322;10.116;2022-11-15T05:52:33;9.17;;;6.90;;
18808;SDS011;9532;54.322;10.116;2022-11-15T05:55:03;9.63;;;6.37;;
18808;SDS011;9532;54.322;10.116;2022-11-15T05:57:33;9.57;;;7.07;;
18808;SDS011;9532;54.322;10.116;2022-11-15T06:00:02;8.60;;;6.47;;
18808;SDS011;9532;54.322;10.116;2022-11-15T06:02:30;8.60;;;6.53;;
18808;SDS011;9532;54.322;10.116;2022-11-15T06:04:57;9.73;;;6.60;;
18808;SDS011;9532;54.322;10.116;2022-11-15T06:07:24;9.03;;;6.77;;
18808;SDS011;9532;54.322;10.116;2022-11-15T06:09:51;8.83;;;6.87;;
18808;SDS011;9532;54.322;10.116;2022-11-15T06:12:18;9.70;;;7.13;;
18808;SDS011;9532;54.322;10.116;2022-11-15T06:14:45;8.90;;;6.87;;
18808;SDS011;9532;54.322;10.116;2022-11-15T06:17:13;8.60;;;6.07;;
18808;SDS011;9532;54.322;10.116;2022-11-15T06:19:40;8.23;;;6.57;;
18808;SDS011;9532;54.322;10.116;2022-11-15T06:22:07;10.07;;;7.57;;
18808;SDS011;9532;54.322;10.116;2022-11-15T06:24:34;7.87;;;6.37;;
18808;SDS011;9532;54.322;10.116;2022-11-15T06:27:01;8.10;;;6.13;;
18808;SDS011;9532;54.322;10.116;2022-11-15T06:29:29;8.50;;;6.77;;
18808;SDS011;9532;54.322;10.116;2022-11-15T06:32:03;8.53;;;6.77;;
18808;SDS011;9532;54.322;10.116;2022-11-15T06:34:36;8.77;;;6.77;;
18808;SDS011;9532;54.322;10.116;2022-11-15T06:37:02;7.93;;;6.20;;
18808;SDS011;9532;54.322;10.116;2022-11-15T06:39:29;7.53;;;5.80;;
18808;SDS011;9532;54.322;10.116;2022-11-15T06:41:56;8.00;;;6.40;;
18808;SDS011;9532;54.322;10.116;2022-11-15T06:44:23;8.23;;;6.37;;
18808;SDS011;9532;54.322;10.116;2022-11-15T06:46:51;8.53;;;6.63;;
18808;SDS011;9532;54.322;10.116;2022-11-15T06:49:18;8.73;;;6.60;;
18808;SDS011;9532;54.322;10.116;2022-11-15T06:51:47;8.07;;;6.20;;
18808;SDS011;9532;54.322;10.116;2022-11-15T06:54:14;8.63;;;6.67;;
18808;SDS011;9532;54.322;10.116;2022-11-15T06:56:42;9.80;;;6.80;;
18808;SDS011;9532;54.322;10.116;2022-11-15T06:59:08;21.33;;;12.67;;
18808;SDS011;9532;54.322;10.116;2022-11-15T07:01:36;20.77;;;14.73;;
18808;SDS011;9532;54.322;10.116;2022-11-15T07:04:03;25.90;;;16.20;;
18808;SDS011;9532;54.322;10.116;2022-11-15T07:06:31;22.40;;;14.50;;
18808;SDS011;9532;54.322;10.116;2022-11-15T07:08:59;24.50;;;13.00;;
18808;SDS011;9532;54.322;10.116;2022-11-15T07:11:28;18.73;;;12.50;;
18808;SDS011;9532;54.322;10.116;2022-11-15T07:13:55;18.03;;;12.10;;
18808;SDS011;9532;54.322;10.116;2022-11-15T07:16:23;16.57;;;11.93;;
18808;SDS011;9532;54.322;10.116;2022-11-15T07:18:50;17.47;;;11.53;;
18808;SDS011;9532;54.322;10.116;2022-11-15T07:21:18;15.37;;;10.93;;
18808;SDS011;9532;54.322;10.116;2022-11-15T07:23:45;17.53;;;10.53;;
18808;SDS011;9532;54.322;10.116;2022-11-15T07:26:14;17.53;;;11.13;;
18808;SDS011;9532;54.322;10.116;2022-11-15T07:28:42;16.00;;;9.90;;
18808;SDS011;9532;54.322;10.116;2022-11-15T07:31:09;15.23;;;10.33;;
18808;SDS011;9532;54.322;10.116;2022-11-15T07:33:36;16.43;;;9.50;;
18808;SDS011;9532;54.322;10.116;2022-11-15T07:36:04;12.87;;;8.97;;
18808;SDS011;9532;54.322;10.116;2022-11-15T07:38:32;13.40;;;9.07;;
18808;SDS011;9532;54.322;10.116;2022-11-15T07:41:01;12.83;;;8.33;;
18808;SDS011;9532;54.322;10.116;2022-11-15T07:43:32;15.97;;;8.20;;
18808;SDS011;9532;54.322;10.116;2022-11-15T07:46:03;13.47;;;8.37;;
18808;SDS011;9532;54.322;10.116;2022-11-15T07:48:34;11.93;;;8.07;;
18808;SDS011;9532;54.322;10.116;2022-11-15T07:51:01;11.57;;;8.00;;
18808;SDS011;9532;54.322;10.116;2022-11-15T07:53:29;12.53;;;7.87;;
18808;SDS011;9532;54.322;10.116;2022-11-15T07:55:56;12.17;;;7.57;;
18808;SDS011;9532;54.322;10.116;2022-11-15T07:58:23;12.27;;;7.77;;
18808;SDS011;9532;54.322;10.116;2022-11-15T08:00:52;11.63;;;7.20;;
18808;SDS011;9532;54.322;10.116;2022-11-15T08:03:19;14.93;;;6.90;;
18808;SDS011;9532;54.322;10.116;2022-11-15T08:05:49;11.20;;;7.10;;
18808;SDS011;9532;54.322;10.116;2022-11-15T08:08:17;15.80;;;8.40;;
18808;SDS011;9532;54.322;10.116;2022-11-15T08:10:46;17.67;;;6.87;;
18808;SDS011;9532;54.322;10.116;2022-11-15T08:13:13;12.97;;;7.43;;
18808;SDS011;9532;54.322;10.116;2022-11-15T08:15:41;14.07;;;7.37;;
18808;SDS011;9532;54.322;10.116;2022-11-15T08:18:11;12.47;;;6.90;;
18808;SDS011;9532;54.322;10.116;2022-11-15T08:20:39;11.97;;;7.37;;
18808;SDS011;9532;54.322;10.116;2022-11-15T08:23:07;16.03;;;7.70;;
18808;SDS011;9532;54.322;10.116;2022-11-15T08:25:37;19.93;;;8.17;;
18808;SDS011;9532;54.322;10.116;2022-11-15T08:28:04;25.17;;;7.73;;
18808;SDS011;9532;54.322;10.116;2022-11-15T08:30:34;19.10;;;6.77;;
18808;SDS011;9532;54.322;10.116;2022-11-15T08:33:03;10.10;;;6.83;;
18808;SDS011;9532;54.322;10.116;2022-11-15T08:35:32;12.17;;;7.10;;
18808;SDS011;9532;54.322;10.116;2022-11-15T08:38:00;13.37;;;7.10;;
18808;SDS011;9532;54.322;10.116;2022-11-15T08:40:27;14.70;;;6.73;;
18808;SDS011;9532;54.322;10.116;2022-11-15T08:42:54;12.17;;;6.83;;
18808;SDS011;9532;54.322;10.116;2022-11-15T08:45:23;16.93;;;7.53;;
18808;SDS011;9532;54.322;10.116;2022-11-15T08:47:51;11.33;;;6.87;;
18808;SDS011;9532;54.322;10.116;2022-11-15T08:50:18;12.13;;;7.33;;
18808;SDS011;9532;54.322;10.116;2022-11-15T08:52:47;12.43;;;7.30;;
18808;SDS011;9532;54.322;10.116;2022-11-15T08:55:14;14.47;;;7.17;;
18808;SDS011;9532;54.322;10.116;2022-11-15T08:57:42;13.63;;;6.30;;
18808;SDS011;9532;54.322;10.116;2022-11-15T09:00:10;10.50;;;6.80;;
18808;SDS011;9532;54.322;10.116;2022-11-15T09:02:38;16.10;;;6.73;;
18808;SDS011;9532;54.322;10.116;2022-11-15T09:05:06;18.37;;;6.53;;
18808;SDS011;9532;54.322;10.116;2022-11-15T09:07:34;16.23;;;6.40;;
18808;SDS011;9532;54.322;10.116;2022-11-15T09:10:03;11.37;;;6.80;;
18808;SDS011;9532;54.322;10.116;2022-11-15T09:12:31;10.07;;;6.17;;
18808;SDS011;9532;54.322;10.116;2022-11-15T09:14:58;11.27;;;6.50;;
18808;SDS011;9532;54.322;10.116;2022-11-15T09:17:25;11.10;;;6.20;;
18808;SDS011;9532;54.322;10.116;2022-11-15T09:19:52;12.90;;;6.37;;
18808;SDS011;9532;54.322;10.116;2022-11-15T09:22:20;11.97;;;6.30;;
18808;SDS011;9532;54.322;10.116;2022-11-15T09:24:47;12.40;;;6.40;;
18808;SDS011;9532;54.322;10.116;2022-11-15T09:27:16;11.90;;;7.00;;
18808;SDS011;9532;54.322;10.116;2022-11-15T09:29:43;10.87;;;6.33;;
18808;SDS011;9532;54.322;10.116;2022-11-15T09:32:10;12.07;;;6.30;;
18808;SDS011;9532;54.322;10.116;2022-11-15T09:34:38;10.47;;;6.17;;
18808;SDS011;9532;54.322;10.116;2022-11-15T09:37:05;16.73;;;6.73;;
18808;SDS011;9532;54.322;10.116;2022-11-15T09:39:32;13.13;;;5.73;;
18808;SDS011;9532;54.322;10.116;2022-11-15T09:42:06;11.90;;;5.87;;
18808;SDS011;9532;54.322;10.116;2022-11-15T09:44:51;12.07;;;6.67;;
18808;SDS011;9532;54.322;10.116;2022-11-15T09:47:33;9.70;;;6.20;;
18808;SDS011;9532;54.322;10.116;2022-11-15T09:50:15;9.07;;;5.77;;
18808;SDS011;9532;54.322;10.116;2022-11-15T09:52:47;13.60;;;6.30;;
18808;SDS011;9532;54.322;10.116;2022-11-15T09:55:15;10.67;;;5.80;;
18808;SDS011;9532;54.322;10.116;2022-11-15T09:57:48;9.53;;;5.90;;
18808;SDS011;9532;54.322;10.116;2022-11-15T10:00:25;10.47;;;6.17;;
18808;SDS011;9532;54.322;10.116;2022-11-15T10:03:01;9.13;;;6.37;;
18808;SDS011;9532;54.322;10.116;2022-11-15T10:05:39;9.53;;;5.50;;
18808;SDS011;9532;54.322;10.116;2022-11-15T10:08:11;9.73;;;5.87;;
18808;SDS011;9532;54.322;10.116;2022-11-15T10:10:51;11.57;;;5.90;;
18808;SDS011;9532;54.322;10.116;2022-11-15T10:13:22;7.50;;;5.50;;
18808;SDS011;9532;54.322;10.116;2022-11-15T10:15:53;12.37;;;6.07;;
18808;SDS011;9532;54.322;10.116;2022-11-15T10:18:29;12.13;;;5.27;;
18808;SDS011;9532;54.322;10.116;2022-11-15T10:21:02;8.63;;;5.50;;
18808;SDS011;9532;54.322;10.116;2022-11-15T10:23:38;11.43;;;5.50;;
18808;SDS011;9532;54.322;10.116;2022-11-15T10:26:07;8.07;;;5.00;;
18808;SDS011;9532;54.322;10.116;2022-11-15T10:28:37;8.97;;;5.63;;
18808;SDS011;9532;54.322;10.116;2022-11-15T10:31:20;13.93;;;5.17;;
18808;SDS011;9532;54.322;10.116;2022-11-15T10:33:49;9.73;;;5.67;;
18808;SDS011;9532;54.322;10.116;2022-11-15T10:36:18;11.90;;;5.87;;
18808;SDS011;9532;54.322;10.116;2022-11-15T10:38:51;8.97;;;5.23;;
18808;SDS011;9532;54.322;10.116;2022-11-15T10:41:21;10.33;;;5.30;;
18808;SDS011;9532;54.322;10.116;2022-11-15T10:44:02;10.00;;;5.90;;
18808;SDS011;9532;54.322;10.116;2022-11-15T10:46:40;10.17;;;6.33;;
18808;SDS011;9532;54.322;10.116;2022-11-15T10:49:12;8.60;;;5.37;;
18808;SDS011;9532;54.322;10.116;2022-11-15T10:51:41;12.00;;;5.67;;
18808;SDS011;9532;54.322;10.116;2022-11-15T10:54:11;10.27;;;5.70;;
18808;SDS011;9532;54.322;10.116;2022-11-15T10:56:42;9.77;;;5.73;;
18808;SDS011;9532;54.322;10.116;2022-11-15T10:59:15;12.67;;;5.73;;
18808;SDS011;9532;54.322;10.116;2022-11-15T11:01:49;10.70;;;5.60;;
18808;SDS011;9532;54.322;10.116;2022-11-15T11:04:16;7.27;;;4.90;;
18808;SDS011;9532;54.322;10.116;2022-11-15T11:06:47;8.33;;;5.47;;
18808;SDS011;9532;54.322;10.116;2022-11-15T11:09:22;14.43;;;5.13;;
18808;SDS011;9532;54.322;10.116;2022-11-15T11:11:54;10.97;;;5.40;;
18808;SDS011;9532;54.322;10.116;2022-11-15T11:14:22;9.17;;;5.30;;
18808;SDS011;9532;54.322;10.116;2022-11-15T11:16:54;12.30;;;5.40;;
18808;SDS011;9532;54.322;10.116;2022-11-15T11:22:19;7.07;;;5.03;;
18808;SDS011;9532;54.322;10.116;2022-11-15T11:24:55;14.07;;;5.00;;
18808;SDS011;9532;54.322;10.116;2022-11-15T11:27:34;11.13;;;5.73;;
18808;SDS011;9532;54.322;10.116;2022-11-15T11:30:09;8.47;;;4.53;;
18808;SDS011;9532;54.322;10.116;2022-11-15T11:32:55;11.03;;;5.37;;
18808;SDS011;9532;54.322;10.116;2022-11-15T11:35:32;14.40;;;5.57;;
18808;SDS011;9532;54.322;10.116;2022-11-15T11:38:15;7.93;;;5.17;;
18808;SDS011;9532;54.322;10.116;2022-11-15T11:40:59;11.50;;;5.50;;
18808;SDS011;9532;54.322;10.116;2022-11-15T11:43:36;10.03;;;5.30;;
18808;SDS011;9532;54.322;10.116;2022-11-15T11:46:20;12.33;;;5.57;;
18808;SDS011;9532;54.322;10.116;2022-11-15T11:49:09;9.97;;;4.87;;
18808;SDS011;9532;54.322;10.116;2022-11-15T11:51:40;13.40;;;5.23;;
18808;SDS011;9532;54.322;10.116;2022-11-15T11:54:12;8.90;;;5.07;;
18808;SDS011;9532;54.322;10.116;2022-11-15T11:56:45;13.23;;;5.30;;
18808;SDS011;9532;54.322;10.116;2022-11-15T11:59:16;7.43;;;4.83;;
18808;SDS011;9532;54.322;10.116;2022-11-15T12:01:52;9.13;;;5.43;;
18808;SDS011;9532;54.322;10.116;2022-11-15T12:04:23;8.90;;;5.00;;
18808;SDS011;9532;54.322;10.116;2022-11-15T12:06:57;12.17;;;5.27;;
18808;SDS011;9532;54.322;10.116;2022-11-15T12:09:28;8.50;;;4.97;;
18808;SDS011;9532;54.322;10.116;2022-11-15T12:12:03;11.17;;;4.87;;
18808;SDS011;9532;54.322;10.116;2022-11-15T12:14:36;9.40;;;4.90;;
18808;SDS011;9532;54.322;10.116;2022-11-15T12:17:09;10.57;;;4.87;;
18808;SDS011;9532;54.322;10.116;2022-11-15T12:19:39;13.97;;;5.10;;
18808;SDS011;9532;54.322;10.116;2022-11-15T12:22:10;21.23;;;5.77;;
18808;SDS011;9532;54.322;10.116;2022-11-15T12:24:44;9.57;;;5.23;;
18808;SDS011;9532;54.322;10.116;2022-11-15T12:27:17;8.27;;;4.40;;
18808;SDS011;9532;54.322;10.116;2022-11-15T12:29:49;7.23;;;4.47;;
18808;SDS011;9532;54.322;10.116;2022-11-15T12:32:24;10.27;;;5.00;;
18808;SDS011;9532;54.322;10.116;2022-11-15T12:34:55;14.30;;;5.13;;
18808;SDS011;9532;54.322;10.116;2022-11-15T12:37:33;11.97;;;5.17;;
18808;SDS011;9532;54.322;10.116;2022-11-15T12:40:23;31.43;;;5.70;;
18808;SDS011;9532;54.322;10.116;2022-11-15T12:46:03;9.23;;;4.60;;
18808;SDS011;9532;54.322;10.116;2022-11-15T12:57:33;11.23;;;5.10;;
18808;SDS011;9532;54.322;10.116;2022-11-15T13:00:19;9.70;;;4.80;;
18808;SDS011;9532;54.322;10.116;2022-11-15T13:03:23;11.50;;;4.87;;
18808;SDS011;9532;54.322;10.116;2022-11-15T13:09:00;10.07;;;5.17;;
18808;SDS011;9532;54.322;10.116;2022-11-15T13:11:42;10.23;;;4.70;;
18808;SDS011;9532;54.322;10.116;2022-11-15T13:17:26;10.20;;;4.80;;
18808;SDS011;9532;54.322;10.116;2022-11-15T13:20:00;22.63;;;5.77;;
18808;SDS011;9532;54.322;10.116;2022-11-15T13:22:43;12.73;;;4.80;;
18808;SDS011;9532;54.322;10.116;2022-11-15T13:28:21;12.20;;;4.50;;
18808;SDS011;9532;54.322;10.116;2022-11-15T13:30:55;15.30;;;4.63;;
18808;SDS011;9532;54.322;10.116;2022-11-15T13:33:25;14.17;;;4.70;;
18808;SDS011;9532;54.322;10.116;2022-11-15T13:35:56;12.73;;;4.50;;
18808;SDS011;9532;54.322;10.116;2022-11-15T13:38:26;14.20;;;4.80;;
18808;SDS011;9532;54.322;10.116;2022-11-15T13:40:58;12.90;;;4.83;;
18808;SDS011;9532;54.322;10.116;2022-11-15T13:43:27;9.80;;;4.97;;
18808;SDS011;9532;54.322;10.116;2022-11-15T13:46:07;10.73;;;4.30;;
18808;SDS011;9532;54.322;10.116;2022-11-15T13:48:39;9.67;;;5.20;;
18808;SDS011;9532;54.322;10.116;2022-11-15T13:51:10;11.83;;;4.63;;
18808;SDS011;9532;54.322;10.116;2022-11-15T13:53:44;9.43;;;4.33;;
18808;SDS011;9532;54.322;10.116;2022-11-15T13:56:16;12.60;;;4.73;;
18808;SDS011;9532;54.322;10.116;2022-11-15T13:58:44;8.00;;;4.50;;
18808;SDS011;9532;54.322;10.116;2022-11-15T14:01:14;9.70;;;4.97;;
18808;SDS011;9532;54.322;10.116;2022-11-15T14:03:47;15.17;;;4.73;;
18808;SDS011;9532;54.322;10.116;2022-11-15T14:06:20;13.60;;;4.70;;
18808;SDS011;9532;54.322;10.116;2022-11-15T14:09:00;10.57;;;5.00;;
18808;SDS011;9532;54.322;10.116;2022-11-15T14:11:50;11.40;;;4.60;;
18808;SDS011;9532;54.322;10.116;2022-11-15T14:14:19;11.90;;;4.80;;
18808;SDS011;9532;54.322;10.116;2022-11-15T14:16:49;8.30;;;4.40;;
18808;SDS011;9532;54.322;10.116;2022-11-15T14:19:35;9.03;;;4.40;;
18808;SDS011;9532;54.322;10.116;2022-11-15T14:22:08;8.90;;;4.63;;
18808;SDS011;9532;54.322;10.116;2022-11-15T14:24:42;9.73;;;4.33;;
18808;SDS011;9532;54.322;10.116;2022-11-15T14:27:19;8.33;;;4.30;;
18808;SDS011;9532;54.322;10.116;2022-11-15T14:29:48;9.53;;;4.43;;
18808;SDS011;9532;54.322;10.116;2022-11-15T14:32:16;12.00;;;4.23;;
18808;SDS011;9532;54.322;10.116;2022-11-15T14:34:45;11.53;;;4.17;;
18808;SDS011;9532;54.322;10.116;2022-11-15T14:37:16;8.57;;;4.00;;
18808;SDS011;9532;54.322;10.116;2022-11-15T14:39:47;16.60;;;4.37;;
18808;SDS011;9532;54.322;10.116;2022-11-15T14:42:15;10.33;;;4.37;;
18808;SDS011;9532;54.322;10.116;2022-11-15T14:44:44;10.23;;;4.40;;
18808;SDS011;9532;54.322;10.116;2022-11-15T14:47:11;11.33;;;4.40;;
18808;SDS011;9532;54.322;10.116;2022-11-15T14:49:39;7.73;;;4.50;;
18808;SDS011;9532;54.322;10.116;2022-11-15T14:52:19;8.60;;;3.97;;
18808;SDS011;9532;54.322;10.116;2022-11-15T14:54:50;12.23;;;4.70;;
18808;SDS011;9532;54.322;10.116;2022-11-15T14:57:18;8.03;;;4.23;;
18808;SDS011;9532;54.322;10.116;2022-11-15T14:59:46;7.93;;;3.90;;
18808;SDS011;9532;54.322;10.116;2022-11-15T15:02:15;5.67;;;3.83;;
18808;SDS011;9532;54.322;10.116;2022-11-15T15:04:45;6.57;;;4.07;;
18808;SDS011;9532;54.322;10.116;2022-11-15T15:07:12;5.67;;;4.10;;
18808;SDS011;9532;54.322;10.116;2022-11-15T15:09:40;7.20;;;3.60;;
18808;SDS011;9532;54.322;10.116;2022-11-15T15:12:13;32.23;;;4.37;;
18808;SDS011;9532;54.322;10.116;2022-11-15T15:14:42;10.77;;;4.07;;
18808;SDS011;9532;54.322;10.116;2022-11-15T15:17:11;9.70;;;4.47;;
18808;SDS011;9532;54.322;10.116;2022-11-15T15:19:38;5.67;;;3.93;;
18808;SDS011;9532;54.322;10.116;2022-11-15T15:22:08;10.70;;;4.03;;
18808;SDS011;9532;54.322;10.116;2022-11-15T15:24:40;6.07;;;3.93;;
18808;SDS011;9532;54.322;10.116;2022-11-15T15:27:08;5.17;;;3.60;;